createdAt,value
2022-10-06T00:00:34.915Z,11.68
2022-10-06T00:03:03.810Z,13.02
2022-10-06T00:05:32.590Z,12.57
2022-10-06T00:08:09.941Z,12.68
2022-10-06T00:10:40.319Z,11.68
2022-10-06T00:13:09.651Z,11.75
2022-10-06T00:15:38.235Z,11.35
2022-10-06T00:18:07.288Z,12.07
2022-10-06T00:20:47.701Z,11.77
2022-10-06T00:23:19.729Z,11.60
2022-10-06T00:25:52.730Z,11.40
2022-10-06T00:28:21.298Z,12.45
2022-10-06T00:30:51.184Z,11.98
2022-10-06T00:33:20.485Z,11.90
2022-10-06T00:35:57.885Z,12.00
2022-10-06T00:38:29.006Z,12.40
2022-10-06T00:40:59.136Z,12.57
2022-10-06T00:43:58.147Z,12.35
2022-10-06T00:46:34.807Z,12.38
2022-10-06T00:49:09.696Z,13.70
2022-10-06T00:51:41.319Z,13.00
2022-10-06T00:54:13.405Z,13.32
2022-10-06T00:59:12.280Z,13.02
2022-10-06T01:01:49.730Z,12.50
2022-10-06T01:04:22.471Z,13.07
2022-10-06T01:06:56.425Z,13.05
2022-10-06T01:09:26.530Z,12.30
2022-10-06T01:11:59.019Z,13.07
2022-10-06T01:14:28.159Z,13.43
2022-10-06T01:16:59.911Z,13.80
2022-10-06T01:22:09.582Z,14.15
2022-10-06T01:24:39.526Z,15.40
2022-10-06T01:27:10.654Z,14.88
2022-10-06T01:29:39.322Z,15.05
2022-10-06T01:32:07.962Z,14.88
2022-10-06T01:34:41.278Z,14.38
2022-10-06T01:37:10.373Z,13.85
2022-10-06T01:39:40.605Z,13.98
2022-10-06T01:42:09.584Z,13.73
2022-10-06T01:44:41.657Z,13.02
2022-10-06T01:47:10.205Z,14.98
2022-10-06T01:49:41.729Z,14.68
2022-10-06T01:52:12.598Z,15.32
2022-10-06T01:54:46.802Z,15.38
2022-10-06T01:57:15.366Z,15.32
2022-10-06T01:59:44.312Z,15.05
2022-10-06T02:02:12.520Z,15.73
2022-10-06T02:04:42.844Z,15.50
2022-10-06T02:07:11.164Z,14.93
2022-10-06T02:09:48.254Z,15.32
2022-10-06T02:12:18.331Z,15.88
2022-10-06T02:14:47.670Z,16.70
2022-10-06T02:17:18.878Z,17.65
2022-10-06T02:19:52.702Z,18.25
2022-10-06T02:22:22.779Z,17.85
2022-10-06T02:24:54.459Z,17.45
2022-10-06T02:27:24.697Z,15.80
2022-10-06T02:29:57.681Z,17.60
2022-10-06T02:32:38.496Z,17.27
2022-10-06T02:35:09.044Z,18.02
2022-10-06T02:37:38.238Z,17.92
2022-10-06T02:40:08.222Z,18.90
2022-10-06T02:42:40.881Z,17.98
2022-10-06T02:45:10.358Z,18.45
2022-10-06T02:47:40.409Z,19.00
2022-10-06T02:50:13.346Z,20.17
2022-10-06T02:52:45.215Z,20.35
2022-10-06T02:55:13.897Z,19.60
2022-10-06T02:57:45.197Z,21.10
2022-10-06T03:00:15.347Z,21.45
2022-10-06T03:02:46.428Z,21.42
2022-10-06T03:05:16.160Z,21.25
2022-10-06T03:07:47.410Z,20.42
2022-10-06T03:10:16.059Z,20.42
2022-10-06T03:12:46.211Z,21.02
2022-10-06T03:15:15.223Z,22.17
2022-10-06T03:17:46.785Z,23.20
2022-10-06T03:20:16.480Z,24.67
2022-10-06T03:22:45.481Z,25.75
2022-10-06T03:25:13.700Z,27.80
2022-10-06T03:27:42.423Z,27.25
2022-10-06T03:30:15.016Z,25.48
2022-10-06T03:35:13.990Z,27.00
2022-10-06T03:37:42.250Z,28.92
2022-10-06T03:40:11.834Z,27.30
2022-10-06T03:42:40.329Z,25.17
2022-10-06T03:45:09.920Z,26.02
2022-10-06T03:47:43.804Z,24.27
2022-10-06T03:50:13.216Z,23.38
2022-10-06T03:52:42.512Z,22.67
2022-10-06T03:55:12.064Z,22.85
2022-10-06T03:57:42.259Z,22.52
2022-10-06T04:00:12.404Z,23.48
2022-10-06T04:02:42.003Z,23.05
2022-10-06T04:05:12.867Z,22.80
2022-10-06T04:07:43.482Z,21.02
2022-10-06T04:10:12.682Z,20.05
2022-10-06T04:12:41.235Z,18.73
2022-10-06T04:15:10.759Z,19.08
2022-10-06T04:17:39.842Z,18.45
2022-10-06T04:20:10.283Z,21.08
2022-10-06T04:22:39.898Z,19.10
2022-10-06T04:25:11.370Z,20.33
2022-10-06T04:27:47.789Z,22.02
2022-10-06T04:30:18.130Z,22.45
2022-10-06T04:32:46.611Z,24.75
2022-10-06T04:35:20.532Z,23.30
2022-10-06T04:37:52.227Z,25.13
2022-10-06T04:40:20.305Z,24.20
2022-10-06T04:42:49.271Z,25.67
2022-10-06T04:45:19.974Z,24.40
2022-10-06T04:47:49.748Z,23.40
2022-10-06T04:50:20.780Z,21.45
2022-10-06T04:52:56.966Z,21.33
2022-10-06T04:55:26.446Z,20.13
2022-10-06T04:57:57.056Z,20.95
2022-10-06T05:00:25.998Z,21.75
2022-10-06T05:02:57.304Z,21.88
2022-10-06T05:05:27.368Z,21.90
2022-10-06T05:07:55.814Z,21.73
2022-10-06T05:10:24.100Z,23.52
2022-10-06T05:13:05.422Z,21.33
2022-10-06T05:15:34.334Z,22.58
2022-10-06T05:18:08.413Z,22.65
2022-10-06T05:20:40.721Z,25.45
2022-10-06T05:23:09.881Z,24.15
2022-10-06T05:25:38.504Z,23.80
2022-10-06T05:28:07.626Z,25.95
2022-10-06T05:30:36.361Z,29.42
2022-10-06T05:33:08.508Z,28.77
2022-10-06T05:35:40.346Z,27.92
2022-10-06T05:38:14.882Z,27.52
2022-10-06T05:40:44.220Z,27.23
2022-10-06T05:43:13.783Z,26.60
2022-10-06T05:45:42.373Z,26.58
2022-10-06T05:48:10.868Z,26.50
2022-10-06T05:50:40.516Z,28.17
2022-10-06T05:53:09.361Z,30.05
2022-10-06T05:55:38.899Z,28.40
2022-10-06T05:58:07.889Z,28.45
2022-10-06T06:00:39.370Z,29.48
2022-10-06T06:03:10.558Z,29.52
2022-10-06T06:05:44.350Z,31.07
2022-10-06T06:08:12.741Z,31.23
2022-10-06T06:10:45.925Z,29.00
2022-10-06T06:13:16.421Z,27.70
2022-10-06T06:16:04.787Z,23.90
2022-10-06T06:18:38.733Z,24.27
2022-10-06T06:21:12.418Z,23.13
2022-10-06T06:23:44.486Z,24.48
2022-10-06T06:26:16.219Z,22.85
2022-10-06T06:28:46.676Z,25.75
2022-10-06T06:31:21.456Z,23.95
2022-10-06T06:33:52.674Z,22.92
2022-10-06T06:36:28.711Z,25.10
2022-10-06T06:39:01.381Z,25.23
2022-10-06T06:41:31.911Z,26.70
2022-10-06T06:44:01.788Z,27.25
2022-10-06T06:46:43.533Z,27.10
2022-10-06T06:49:12.522Z,25.75
2022-10-06T06:51:54.400Z,24.77
2022-10-06T06:54:25.010Z,25.48
2022-10-06T06:56:55.537Z,25.20
2022-10-06T06:59:23.734Z,25.40
2022-10-06T07:01:52.316Z,25.80
2022-10-06T07:04:22.147Z,24.35
2022-10-06T07:06:58.470Z,24.20
2022-10-06T07:09:28.052Z,23.83
2022-10-06T07:11:56.482Z,27.75
2022-10-06T07:14:24.997Z,31.65
2022-10-06T07:17:14.737Z,35.58
2022-10-06T07:20:00.809Z,31.27
2022-10-06T07:22:50.627Z,29.25
2022-10-06T07:25:26.494Z,25.52
2022-10-06T07:27:55.783Z,24.73
2022-10-06T07:30:26.890Z,25.33
2022-10-06T07:32:58.276Z,25.75
2022-10-06T07:35:29.523Z,24.33
2022-10-06T07:38:08.198Z,24.42
2022-10-06T07:40:46.389Z,23.75
2022-10-06T07:43:28.456Z,23.45
2022-10-06T07:45:56.750Z,22.77
2022-10-06T07:48:25.399Z,23.35
2022-10-06T07:50:54.160Z,22.88
2022-10-06T07:53:29.230Z,23.13
2022-10-06T07:56:05.594Z,23.30
2022-10-06T07:58:34.623Z,23.08
2022-10-06T08:01:11.305Z,22.55
2022-10-06T08:03:40.222Z,22.27
2022-10-06T08:06:12.798Z,21.52
2022-10-06T08:08:43.714Z,22.08
2022-10-06T08:11:13.458Z,21.83
2022-10-06T08:13:46.252Z,22.23
2022-10-06T08:16:18.270Z,22.40
2022-10-06T08:21:21.394Z,22.50
2022-10-06T08:23:56.315Z,21.45
2022-10-06T08:26:40.595Z,21.92
2022-10-06T08:29:11.562Z,21.70
2022-10-06T08:31:43.054Z,21.67
2022-10-06T08:34:12.499Z,21.27
2022-10-06T08:37:02.232Z,21.73
2022-10-06T08:39:40.749Z,21.10
2022-10-06T08:42:15.235Z,20.48
2022-10-06T08:44:48.621Z,21.55
2022-10-06T08:47:37.416Z,20.60
2022-10-06T08:50:13.258Z,21.90
2022-10-06T08:52:54.225Z,22.85
2022-10-06T08:55:35.530Z,21.60
2022-10-06T08:58:18.539Z,19.23
2022-10-06T09:00:57.235Z,14.77
2022-10-06T09:03:33.348Z,15.20
2022-10-06T09:06:14.127Z,15.98
2022-10-06T09:08:50.998Z,14.68
2022-10-06T09:11:46.416Z,13.73
2022-10-06T09:14:29.364Z,13.65
2022-10-06T09:17:06.248Z,14.05
2022-10-06T09:19:45.654Z,13.45
2022-10-06T09:22:25.477Z,13.77
2022-10-06T09:24:58.798Z,12.82
2022-10-06T09:27:36.709Z,13.20
2022-10-06T09:30:09.662Z,12.77
2022-10-06T09:32:41.673Z,11.40
2022-10-06T09:35:24.083Z,12.27
2022-10-06T09:38:01.373Z,11.50
2022-10-06T09:40:50.899Z,12.07
2022-10-06T09:43:27.926Z,11.48
2022-10-06T09:45:57.508Z,11.20
2022-10-06T09:48:28.923Z,12.80
2022-10-06T09:51:16.031Z,10.40
2022-10-06T09:54:08.257Z,10.30
2022-10-06T09:56:37.755Z,11.00
2022-10-06T09:59:24.645Z,10.60
2022-10-06T10:01:56.429Z,9.68
2022-10-06T10:04:30.112Z,10.63
2022-10-06T10:07:30.430Z,10.40
2022-10-06T10:10:21.781Z,10.57
2022-10-06T10:13:01.768Z,10.80
2022-10-06T10:15:38.286Z,8.73
2022-10-06T10:18:16.970Z,7.50
2022-10-06T10:20:55.832Z,8.80
2022-10-06T10:23:31.875Z,10.48
2022-10-06T10:26:39.504Z,8.93
2022-10-06T10:29:41.294Z,8.60
2022-10-06T10:32:28.228Z,9.10
2022-10-06T10:35:10.292Z,11.68
2022-10-06T10:37:47.268Z,9.18
2022-10-06T10:40:30.290Z,8.75
2022-10-06T10:43:15.240Z,9.25
2022-10-06T10:45:53.520Z,8.50
2022-10-06T10:48:32.213Z,7.90
2022-10-06T10:51:08.830Z,10.20
2022-10-06T10:53:51.508Z,8.63
2022-10-06T10:56:24.303Z,8.48
2022-10-06T10:58:57.563Z,8.48
2022-10-06T11:01:35.618Z,8.32
2022-10-06T11:04:13.815Z,8.45
2022-10-06T11:07:03.279Z,8.23
2022-10-06T11:09:44.192Z,8.02
2022-10-06T11:12:23.583Z,8.13
2022-10-06T11:15:04.267Z,7.90
2022-10-06T11:17:44.665Z,8.57
2022-10-06T11:20:33.035Z,7.60
2022-10-06T11:23:31.284Z,8.05
2022-10-06T11:26:09.931Z,7.30
2022-10-06T11:28:45.028Z,8.93
2022-10-06T11:31:27.565Z,6.72
2022-10-06T11:34:02.594Z,7.65
2022-10-06T11:36:51.679Z,7.30
2022-10-06T11:39:32.311Z,7.40
2022-10-06T11:42:10.140Z,7.35
2022-10-06T11:44:43.655Z,7.13
2022-10-06T11:47:28.216Z,7.50
2022-10-06T11:50:24.151Z,7.25
2022-10-06T11:52:59.585Z,7.35
2022-10-06T11:55:31.251Z,7.15
2022-10-06T12:01:28.668Z,8.02
2022-10-06T12:04:18.526Z,7.57
2022-10-06T12:07:04.597Z,7.68
2022-10-06T12:10:18.050Z,7.72
2022-10-06T12:13:31.746Z,7.30
2022-10-06T12:17:08.478Z,7.53
2022-10-06T12:19:21.198Z,7.68
2022-10-06T12:22:01.808Z,7.78
2022-10-06T12:24:41.959Z,7.50
2022-10-06T12:27:40.732Z,7.45
2022-10-06T12:30:25.259Z,8.27
2022-10-06T12:32:57.703Z,8.20
2022-10-06T12:35:44.007Z,7.70
2022-10-06T12:39:01.591Z,7.35
2022-10-06T12:42:01.322Z,7.40
2022-10-06T12:44:43.461Z,7.25
2022-10-06T12:47:26.762Z,7.38
2022-10-06T12:50:00.434Z,8.02
2022-10-06T12:52:52.571Z,8.63
2022-10-06T12:55:41.812Z,8.77
2022-10-06T12:58:19.701Z,8.68
2022-10-06T13:00:53.697Z,8.30
2022-10-06T13:03:26.516Z,8.02
2022-10-06T13:05:59.311Z,8.35
2022-10-06T13:08:30.547Z,8.10
2022-10-06T13:11:23.830Z,7.15
2022-10-06T13:13:56.036Z,8.48
2022-10-06T13:16:29.049Z,8.57
2022-10-06T13:19:03.715Z,7.88
2022-10-06T13:21:36.230Z,8.07
2022-10-06T13:24:08.534Z,7.93
2022-10-06T13:26:37.482Z,7.53
2022-10-06T13:29:13.705Z,7.63
2022-10-06T13:31:52.659Z,7.72
2022-10-06T13:34:29.915Z,7.32
2022-10-06T13:37:04.931Z,7.15
2022-10-06T13:39:34.293Z,7.68
2022-10-06T13:42:05.938Z,7.47
2022-10-06T13:44:38.477Z,8.20
2022-10-06T13:47:16.612Z,8.40
2022-10-06T13:49:51.178Z,8.23
2022-10-06T13:52:24.919Z,8.20
2022-10-06T13:54:59.044Z,7.90
2022-10-06T13:57:40.013Z,7.88
2022-10-06T14:00:20.759Z,8.30
2022-10-06T14:03:15.171Z,7.93
2022-10-06T14:05:51.462Z,8.75
2022-10-06T14:08:25.549Z,8.23
2022-10-06T14:11:02.505Z,8.77
2022-10-06T14:13:35.465Z,8.05
2022-10-06T14:16:08.789Z,8.27
2022-10-06T14:18:42.805Z,8.95
2022-10-06T14:21:30.579Z,8.70
2022-10-06T14:24:06.191Z,8.63
2022-10-06T14:26:37.654Z,7.88
2022-10-06T14:29:06.265Z,8.15
2022-10-06T14:31:36.764Z,8.77
2022-10-06T14:34:14.422Z,7.90
2022-10-06T14:36:45.298Z,8.52
2022-10-06T14:39:32.179Z,8.30
2022-10-06T14:42:02.433Z,8.10
2022-10-06T14:44:31.589Z,8.40
2022-10-06T14:47:00.848Z,7.80
2022-10-06T14:49:33.943Z,8.23
2022-10-06T14:52:02.822Z,8.10
2022-10-06T14:54:31.215Z,8.13
2022-10-06T14:57:00.765Z,9.13
2022-10-06T14:59:30.008Z,8.80
2022-10-06T15:01:59.294Z,9.48
2022-10-06T15:04:28.256Z,9.55
2022-10-06T15:09:50.082Z,8.82
2022-10-06T15:12:18.256Z,9.80
2022-10-06T15:14:49.601Z,9.82
2022-10-06T15:17:17.902Z,9.68
2022-10-06T15:19:47.073Z,9.50
2022-10-06T15:22:17.044Z,9.75
2022-10-06T15:24:50.472Z,11.00
2022-10-06T15:27:36.705Z,12.20
2022-10-06T15:30:08.440Z,13.23
2022-10-06T15:32:38.972Z,13.05
2022-10-06T15:35:10.615Z,12.25
2022-10-06T15:37:44.784Z,12.75
2022-10-06T15:40:16.488Z,12.23
2022-10-06T15:42:50.166Z,12.07
2022-10-06T15:45:18.447Z,11.68
2022-10-06T15:47:52.159Z,12.52
2022-10-06T15:50:20.701Z,14.13
2022-10-06T15:52:50.968Z,12.30
2022-10-06T15:55:19.730Z,11.23
2022-10-06T15:57:50.140Z,11.38
2022-10-06T16:00:18.520Z,10.80
2022-10-06T16:02:48.509Z,11.73
2022-10-06T16:05:45.275Z,12.50
2022-10-06T16:08:16.362Z,12.15
2022-10-06T16:10:50.905Z,12.15
2022-10-06T16:13:24.113Z,11.57
2022-10-06T16:15:56.033Z,11.35
2022-10-06T16:20:56.046Z,13.00
2022-10-06T16:23:28.438Z,14.25
2022-10-06T16:25:56.723Z,14.73
2022-10-06T16:28:25.062Z,17.77
2022-10-06T16:31:01.257Z,14.82
2022-10-06T16:33:29.910Z,18.50
2022-10-06T16:35:59.380Z,15.52
2022-10-06T16:38:31.299Z,16.67
2022-10-06T16:43:32.161Z,17.48
2022-10-06T16:46:10.835Z,17.23
2022-10-06T16:48:41.016Z,17.38
2022-10-06T16:51:11.121Z,16.92
2022-10-06T16:53:43.312Z,17.30
2022-10-06T16:56:14.546Z,16.80
2022-10-06T16:58:51.275Z,15.07
2022-10-06T17:01:21.689Z,14.93
2022-10-06T17:04:03.009Z,15.63
2022-10-06T17:06:34.210Z,17.07
2022-10-06T17:09:05.574Z,20.20
2022-10-06T17:11:36.064Z,19.33
2022-10-06T17:14:05.884Z,23.00
2022-10-06T17:16:37.101Z,21.52
2022-10-06T17:19:09.771Z,20.80
2022-10-06T17:21:48.109Z,21.92
2022-10-06T17:24:25.580Z,24.13
2022-10-06T17:26:54.567Z,26.17
2022-10-06T17:29:23.867Z,27.45
2022-10-06T17:32:00.156Z,27.33
2022-10-06T17:34:32.825Z,26.40
2022-10-06T17:37:05.902Z,25.63
2022-10-06T17:39:35.518Z,26.02
2022-10-06T17:42:03.692Z,26.35
2022-10-06T17:44:35.806Z,25.30
2022-10-06T17:47:04.169Z,26.75
2022-10-06T17:49:35.010Z,25.83
2022-10-06T17:52:03.308Z,27.67
2022-10-06T17:54:33.898Z,30.65
2022-10-06T17:57:03.771Z,26.33
2022-10-06T17:59:33.380Z,31.90
2022-10-06T18:02:11.829Z,29.05
2022-10-06T18:04:43.142Z,28.83
2022-10-06T18:07:11.329Z,31.30
2022-10-06T18:10:01.295Z,28.65
2022-10-06T18:12:32.404Z,40.22
2022-10-06T18:15:01.075Z,35.15
2022-10-06T18:17:30.194Z,50.63
2022-10-06T18:19:58.876Z,59.58
2022-10-06T18:22:28.773Z,42.25
2022-10-06T18:25:00.715Z,40.40
2022-10-06T18:27:35.349Z,36.47
2022-10-06T18:30:04.131Z,40.28
2022-10-06T18:34:58.798Z,38.20
2022-10-06T18:38:26.210Z,36.42
2022-10-06T18:40:56.836Z,38.85
2022-10-06T18:43:30.239Z,37.93
2022-10-06T18:46:23.239Z,37.35
2022-10-06T18:49:00.053Z,36.33
2022-10-06T18:51:32.383Z,36.42
2022-10-06T18:54:02.215Z,35.42
2022-10-06T18:56:33.267Z,36.05
2022-10-06T18:59:08.637Z,36.83
2022-10-06T19:01:41.192Z,38.65
2022-10-06T19:04:16.898Z,37.60
2022-10-06T19:06:50.502Z,37.78
2022-10-06T19:09:24.118Z,36.47
2022-10-06T19:11:58.302Z,38.05
2022-10-06T19:14:31.841Z,37.50
2022-10-06T19:17:02.273Z,35.33
2022-10-06T19:19:32.878Z,39.10
2022-10-06T19:22:07.328Z,38.88
2022-10-06T19:24:44.103Z,37.85
2022-10-06T19:27:15.413Z,39.35
2022-10-06T19:29:56.857Z,39.28
2022-10-06T19:32:28.761Z,37.35
2022-10-06T19:35:00.481Z,37.67
2022-10-06T19:37:31.156Z,37.45
2022-10-06T19:40:00.225Z,36.85
2022-10-06T19:42:46.625Z,36.47
2022-10-06T19:45:18.130Z,37.33
2022-10-06T19:47:47.757Z,41.92
2022-10-06T19:50:19.873Z,35.85
2022-10-06T19:52:51.782Z,37.65
2022-10-06T19:57:52.005Z,34.35
2022-10-06T20:00:24.241Z,35.53
2022-10-06T20:02:53.049Z,33.63
2022-10-06T20:05:22.094Z,34.90
2022-10-06T20:07:52.350Z,33.47
2022-10-06T20:10:21.436Z,33.92
2022-10-06T20:12:50.258Z,34.80
2022-10-06T20:15:24.170Z,35.65
2022-10-06T20:17:53.888Z,35.47
2022-10-06T20:20:27.164Z,34.22
2022-10-06T20:22:55.878Z,35.78
2022-10-06T20:25:24.223Z,35.60
2022-10-06T20:27:55.328Z,40.55
2022-10-06T20:30:27.958Z,60.55
2022-10-06T20:32:56.504Z,50.35
2022-10-06T20:35:24.929Z,45.17
2022-10-06T20:37:56.310Z,37.92
2022-10-06T20:40:50.368Z,36.83
2022-10-06T20:43:18.986Z,35.75
2022-10-06T20:45:57.449Z,35.33
2022-10-06T20:48:31.637Z,36.97
2022-10-06T20:51:09.746Z,39.00
2022-10-06T20:53:41.924Z,37.47
2022-10-06T20:56:14.433Z,36.30
2022-10-06T20:58:50.260Z,37.85
2022-10-06T21:01:26.522Z,38.85
2022-10-06T21:03:57.183Z,38.55
2022-10-06T21:06:25.765Z,37.20
2022-10-06T21:08:55.033Z,40.03
2022-10-06T21:11:25.189Z,39.75
2022-10-06T21:13:53.950Z,39.38
2022-10-06T21:16:35.409Z,38.10
2022-10-06T21:19:04.643Z,38.08
2022-10-06T21:21:34.431Z,34.80
2022-10-06T21:24:03.498Z,35.00
2022-10-06T21:26:37.843Z,35.42
2022-10-06T21:29:07.372Z,36.72
2022-10-06T21:31:38.751Z,36.00
2022-10-06T21:34:10.670Z,35.63
2022-10-06T21:36:49.102Z,35.20
2022-10-06T21:39:17.846Z,32.47
2022-10-06T21:41:46.682Z,33.22
2022-10-06T21:44:16.280Z,34.28
2022-10-06T21:46:48.640Z,35.50
2022-10-06T21:49:20.264Z,34.35
2022-10-06T21:51:55.242Z,33.42
2022-10-06T21:54:24.791Z,33.38
2022-10-06T21:56:53.250Z,34.15
2022-10-06T21:59:24.652Z,34.65
2022-10-06T22:01:58.321Z,32.50
2022-10-06T22:04:28.885Z,33.42
2022-10-06T22:06:59.533Z,34.20
2022-10-06T22:09:28.075Z,35.08
2022-10-06T22:12:02.002Z,33.60
2022-10-06T22:14:30.295Z,35.08
2022-10-06T22:17:01.122Z,31.40
2022-10-06T22:19:36.482Z,28.95
2022-10-06T22:22:09.462Z,29.55
2022-10-06T22:24:39.868Z,31.50
2022-10-06T22:27:10.131Z,31.77
2022-10-06T22:29:40.111Z,29.95
2022-10-06T22:32:15.638Z,30.05
2022-10-06T22:34:49.616Z,30.05
2022-10-06T22:37:18.892Z,28.98
2022-10-06T22:39:50.513Z,29.50
2022-10-06T22:42:29.454Z,29.20
2022-10-06T22:45:00.251Z,29.73
2022-10-06T22:47:36.464Z,28.83
2022-10-06T22:50:08.342Z,27.30
2022-10-06T22:52:37.571Z,27.30
2022-10-06T22:55:10.552Z,28.67
2022-10-06T22:57:52.424Z,28.25
2022-10-06T23:00:23.500Z,27.02
2022-10-06T23:02:53.816Z,27.25
2022-10-06T23:05:22.602Z,26.88
2022-10-06T23:07:51.600Z,25.58
2022-10-06T23:10:25.981Z,23.48
2022-10-06T23:12:55.254Z,23.73
2022-10-06T23:15:24.487Z,23.60
2022-10-06T23:17:54.600Z,25.35
2022-10-06T23:20:23.370Z,27.92
2022-10-06T23:22:52.155Z,26.50
2022-10-06T23:25:27.142Z,26.38
2022-10-06T23:27:59.390Z,25.75
2022-10-06T23:30:28.923Z,25.65
2022-10-06T23:32:58.830Z,26.42
2022-10-06T23:35:29.023Z,24.70
2022-10-06T23:37:57.525Z,23.67
2022-10-06T23:40:27.433Z,26.10
2022-10-06T23:42:59.193Z,26.58
2022-10-06T23:45:27.513Z,25.17
2022-10-06T23:48:01.456Z,25.15
2022-10-06T23:50:30.046Z,25.05
2022-10-06T23:52:58.530Z,26.25
2022-10-06T23:55:27.085Z,28.70
2022-10-06T23:57:55.658Z,29.63
